Time;durP1;ratioP1;P1;durP2;ratioP2;P2;SDS_P1;SDS_P2;PMS_P1;PMS_P2;Temp;Humidity;BMP_temperature;BMP_pressure;BME280_temperature;BME280_humidity;BME280_pressure;Samples;Min_cycle;Max_cycle;Signal;HPM_P1;HPM_P2
2021/05/30 00:01:53;;;;;;;21.35;11.65;;;;;;;-142.65;66.15;77860.28;5044863;28;20037;-72
2021/05/30 00:04:20;;;;;;;18.33;11.13;;;;;;;-142.65;66.16;77858.25;5041105;28;20367;-72
2021/05/30 00:06:45;;;;;;;18.27;11.63;;;;;;;-142.65;66.01;77854.13;5027039;28;20520;-73
2021/05/30 00:09:11;;;;;;;17.45;11.70;;;;;;;-142.65;65.90;77858.25;5023476;28;20033;-73
2021/05/30 00:11:37;;;;;;;23.92;13.02;;;;;;;-142.65;66.05;77858.25;5024743;28;20339;-73
2021/05/30 00:14:04;;;;;;;21.95;12.93;;;;;;;-142.65;66.08;77852.06;5025756;28;20046;-73
2021/05/30 00:16:30;;;;;;;24.77;13.45;;;;;;;-142.65;66.28;77858.25;5026109;28;20573;-73
2021/05/30 00:18:56;;;;;;;21.90;13.43;;;;;;;-142.65;66.59;77862.34;5026864;28;20041;-73
2021/05/30 00:21:22;;;;;;;23.67;13.45;;;;;;;-142.65;66.54;77866.47;5025908;28;20531;-72
2021/05/30 00:23:47;;;;;;;18.95;12.13;;;;;;;-142.65;66.75;77862.34;5029895;28;20140;-73
2021/05/30 00:26:13;;;;;;;19.50;13.20;;;;;;;-142.65;66.71;77866.47;5032991;28;20064;-72
2021/05/30 00:28:38;;;;;;;21.83;12.82;;;;;;;-142.65;66.75;77878.81;5029861;28;20064;-73
2021/05/30 00:31:04;;;;;;;19.60;13.27;;;;;;;-142.65;66.69;77874.69;5034805;28;20044;-73
2021/05/30 00:33:29;;;;;;;20.65;12.63;;;;;;;-142.65;66.41;77878.81;5029968;28;20032;-73
2021/05/30 00:35:55;;;;;;;22.45;13.68;;;;;;;-142.65;66.35;77882.91;5030519;28;20170;-73
2021/05/30 00:38:20;;;;;;;23.65;13.20;;;;;;;-142.65;66.44;77884.97;5028664;28;20130;-73
2021/05/30 00:40:46;;;;;;;21.55;13.70;;;;;;;-142.65;66.75;77895.25;5030520;28;21401;-72
2021/05/30 00:43:11;;;;;;;24.80;14.35;;;;;;;-142.65;66.94;77901.44;5029951;28;20091;-73
2021/05/30 00:45:37;;;;;;;23.15;14.48;;;;;;;-142.65;67.18;77907.59;5027816;28;20033;-72
2021/05/30 00:48:03;;;;;;;21.35;13.57;;;;;;;-142.65;67.58;77919.94;5027593;28;20037;-73
2021/05/30 00:50:29;;;;;;;19.17;13.05;;;;;;;-142.65;67.60;77917.88;5027910;28;20041;-73
2021/05/30 00:52:54;;;;;;;19.90;12.90;;;;;;;-142.65;67.47;77919.94;5025563;28;20034;-73
2021/05/30 00:55:21;;;;;;;22.23;13.45;;;;;;;-142.65;67.53;77926.09;5041392;28;20045;-73
2021/05/30 00:57:46;;;;;;;23.77;13.93;;;;;;;-142.65;67.67;77926.09;5023859;28;20033;-73
2021/05/30 01:00:13;;;;;;;21.35;14.15;;;;;;;-142.65;67.71;77932.28;5020154;28;20616;-73
2021/05/30 01:02:39;;;;;;;21.02;14.20;;;;;;;-142.65;67.91;77940.50;5031910;28;20449;-72
2021/05/30 01:05:07;;;;;;;22.02;13.77;;;;;;;-142.65;68.07;77961.06;5029461;28;20029;-73
2021/05/30 01:07:39;;;;;;;19.60;13.40;;;;;;;-142.65;68.60;77979.56;5021451;28;20596;-72
2021/05/30 01:10:29;;;;;;;22.93;14.00;;;;;;;-142.65;68.98;77996.03;5026365;28;20033;-72
2021/05/30 01:12:59;;;;;;;21.33;13.13;;;;;;;-142.65;68.98;77993.97;5024559;28;20361;-72
2021/05/30 01:15:27;;;;;;;19.90;12.75;;;;;;;-142.65;68.67;77989.84;5022561;28;20068;-72
2021/05/30 01:17:54;;;;;;;21.27;13.77;;;;;;;-142.65;68.51;77983.69;5024849;28;20055;-72
2021/05/30 01:20:21;;;;;;;25.63;14.38;;;;;;;-142.65;68.55;77987.78;5028749;28;20403;-73
2021/05/30 01:22:47;;;;;;;22.73;13.90;;;;;;;-142.65;68.59;77989.84;5007811;28;20070;-72
2021/05/30 01:25:17;;;;;;;22.60;14.73;;;;;;;-142.65;68.60;77991.91;5024097;28;20533;-72
2021/05/30 01:27:43;;;;;;;24.63;14.27;;;;;;;-142.65;68.87;78002.19;5025486;28;20041;-74
2021/05/30 01:30:10;;;;;;;25.20;16.05;;;;;;;-142.65;69.27;78010.41;5022567;28;20037;-74
2021/05/30 01:32:37;;;;;;;24.48;15.27;;;;;;;-142.65;69.77;78024.81;5022899;28;20029;-75
2021/05/30 01:35:17;;;;;;;23.00;14.57;;;;;;;-142.65;69.95;78022.75;5024255;28;20040;-74
2021/05/30 01:37:42;;;;;;;23.48;14.93;;;;;;;-142.65;69.76;78026.88;5023528;28;20501;-72
2021/05/30 01:40:09;;;;;;;23.05;14.75;;;;;;;-142.65;69.48;78022.75;5024613;28;20064;-72
2021/05/30 01:42:35;;;;;;;24.30;14.70;;;;;;;-142.65;69.24;78026.88;5022737;28;20458;-72
2021/05/30 01:45:00;;;;;;;25.90;15.25;;;;;;;-142.65;69.20;78016.59;5032746;28;20460;-74
2021/05/30 01:47:26;;;;;;;23.25;14.30;;;;;;;-142.65;69.07;78026.88;5026009;28;20044;-74
2021/05/30 01:49:52;;;;;;;26.67;15.35;;;;;;;-142.65;68.93;78030.97;5028106;28;20040;-74
2021/05/30 01:52:18;;;;;;;25.40;14.93;;;;;;;-142.65;69.03;78030.97;5024499;28;20183;-74
2021/05/30 01:54:47;;;;;;;27.30;14.65;;;;;;;-142.65;69.07;78039.22;5029386;28;20041;-74
2021/05/30 01:57:15;;;;;;;19.13;12.88;;;;;;;-142.65;69.00;78041.25;5023265;28;20972;-74
2021/05/30 01:59:43;;;;;;;25.55;15.30;;;;;;;-142.65;69.00;78043.31;5030406;28;20037;-74
2021/05/30 02:02:09;;;;;;;23.77;13.82;;;;;;;-142.65;68.98;78051.56;5021734;28;20248;-74
2021/05/30 02:04:39;;;;;;;25.00;14.88;;;;;;;-142.65;68.84;78047.44;5023568;28;20069;-74
2021/05/30 02:07:07;;;;;;;25.63;14.95;;;;;;;-142.65;68.90;78053.59;5019377;28;20041;-74
2021/05/30 02:09:35;;;;;;;25.27;16.00;;;;;;;-142.65;69.10;78057.72;5023762;28;20037;-74
2021/05/30 02:12:01;;;;;;;21.77;14.88;;;;;;;-142.65;69.17;78059.78;5021459;28;20037;-74
2021/05/30 02:14:27;;;;;;;22.27;14.38;;;;;;;-142.65;69.05;78061.84;5020217;28;20036;-74
2021/05/30 02:16:53;;;;;;;22.23;14.45;;;;;;;-142.65;69.05;78068.00;5024510;28;20510;-74
2021/05/30 02:19:18;;;;;;;25.95;15.57;;;;;;;-142.65;69.15;78063.88;5031198;28;20580;-74
2021/05/30 02:21:46;;;;;;;28.58;15.05;;;;;;;-142.65;69.28;78078.28;5025195;28;20041;-74
2021/05/30 02:24:13;;;;;;;22.80;14.32;;;;;;;-142.65;69.29;78072.13;5022330;28;20065;-74
2021/05/30 02:26:40;;;;;;;24.13;15.32;;;;;;;-142.65;69.30;78078.28;5007419;28;20029;-74
2021/05/30 02:29:06;;;;;;;27.08;14.43;;;;;;;-142.65;69.32;78078.28;5027476;28;20095;-74
2021/05/30 02:31:32;;;;;;;22.45;14.85;;;;;;;-142.65;69.35;78076.22;5026628;28;20108;-74
2021/05/30 02:33:57;;;;;;;28.00;15.55;;;;;;;-142.65;69.28;78080.34;5027746;28;20021;-74
2021/05/30 02:36:24;;;;;;;27.13;14.82;;;;;;;-142.65;69.44;78084.44;5033227;28;20048;-74
2021/05/30 02:38:49;;;;;;;26.25;14.70;;;;;;;-142.65;69.36;78096.78;5027186;28;20033;-72
2021/05/30 02:41:15;;;;;;;25.75;16.02;;;;;;;-142.65;69.33;78102.97;5029420;28;20387;-72
2021/05/30 02:43:41;;;;;;;22.70;14.25;;;;;;;-142.65;69.46;78105.03;5028362;28;20037;-72
2021/05/30 02:46:07;;;;;;;24.27;14.35;;;;;;;-142.65;69.51;78109.13;5028824;28;20551;-72
2021/05/30 02:48:32;;;;;;;21.20;13.93;;;;;;;-142.65;69.42;78117.34;5028540;28;20040;-72
2021/05/30 02:51:01;;;;;;;22.80;14.30;;;;;;;-142.65;69.32;78121.47;5035271;28;20033;-72
2021/05/30 02:53:27;;;;;;;23.20;14.07;;;;;;;-142.65;69.26;78115.31;5026736;28;20668;-72
2021/05/30 02:55:54;;;;;;;25.85;14.50;;;;;;;-142.65;69.22;78127.66;5026804;28;20037;-72
2021/05/30 02:58:19;;;;;;;23.27;14.95;;;;;;;-142.65;69.33;78123.53;5027396;28;20056;-72
2021/05/30 03:00:45;;;;;;;22.15;14.55;;;;;;;-142.65;69.44;78125.59;5027460;28;20107;-72
2021/05/30 03:03:10;;;;;;;23.92;14.82;;;;;;;-142.65;69.48;78133.81;5029401;28;20036;-72
2021/05/30 03:05:36;;;;;;;25.25;15.32;;;;;;;-142.65;69.54;78137.94;5019525;28;20021;-72
2021/05/30 03:08:02;;;;;;;25.58;14.20;;;;;;;-142.65;69.74;78137.94;5026222;28;20493;-72
2021/05/30 03:10:27;;;;;;;22.27;14.68;;;;;;;-142.65;69.85;78146.16;5021741;28;20029;-72
2021/05/30 03:12:53;;;;;;;28.23;15.88;;;;;;;-142.65;70.07;78152.31;5021777;28;20444;-72
2021/05/30 03:15:18;;;;;;;28.48;15.60;;;;;;;-142.65;70.29;78154.38;5021785;28;20408;-72
2021/05/30 03:17:44;;;;;;;23.02;14.45;;;;;;;-142.65;70.30;78162.59;5020909;28;20460;-72
2021/05/30 03:20:10;;;;;;;21.45;13.75;;;;;;;-142.65;70.40;78164.66;5028113;28;20071;-72
2021/05/30 03:22:36;;;;;;;24.02;14.10;;;;;;;-142.65;70.20;78164.66;5014404;28;20079;-72
2021/05/30 03:25:01;;;;;;;21.42;13.75;;;;;;;-142.65;70.11;78170.81;5021749;28;20041;-72
2021/05/30 03:27:27;;;;;;;24.27;14.27;;;;;;;-142.65;70.28;78179.06;5022334;28;20052;-72
2021/05/30 03:29:53;;;;;;;25.83;14.77;;;;;;;-142.65;70.26;78183.16;5027225;28;20110;-72
2021/05/30 03:32:19;;;;;;;21.30;13.50;;;;;;;-142.65;70.33;78193.44;5022863;28;20089;-71
2021/05/30 03:34:44;;;;;;;23.80;13.48;;;;;;;-142.65;70.37;78195.50;5024057;28;20599;-72
2021/05/30 03:37:10;;;;;;;24.65;13.32;;;;;;;-142.65;70.54;78222.25;5021220;28;20578;-72
2021/05/30 03:39:39;;;;;;;24.50;14.55;;;;;;;-142.65;71.00;78248.97;5029417;28;20034;-72
2021/05/30 03:42:09;;;;;;;24.23;14.32;;;;;;;-142.65;71.17;78248.97;5025661;28;20029;-72
2021/05/30 03:44:35;;;;;;;21.70;13.77;;;;;;;-142.65;71.37;78259.25;5022723;28;20477;-72
2021/05/30 03:47:01;;;;;;;25.25;14.85;;;;;;;-142.65;71.57;78265.44;5028167;28;21795;-72
2021/05/30 03:49:26;;;;;;;23.27;14.73;;;;;;;-142.65;71.70;78273.66;5024059;28;20478;-72
2021/05/30 03:51:52;;;;;;;24.48;14.63;;;;;;;-142.65;72.03;78277.78;5026440;28;20033;-72
2021/05/30 03:54:18;;;;;;;24.52;14.30;;;;;;;-142.65;72.34;78296.28;5024117;28;20041;-72
2021/05/30 03:56:43;;;;;;;22.30;14.32;;;;;;;-142.65;72.52;78298.34;5025707;28;20087;-72
2021/05/30 03:59:09;;;;;;;22.63;13.63;;;;;;;-142.65;72.57;78298.34;5024421;28;20079;-72
2021/05/30 04:01:35;;;;;;;24.48;13.88;;;;;;;-142.65;72.67;78298.34;5026611;28;20418;-72
2021/05/30 04:04:01;;;;;;;22.95;13.75;;;;;;;-142.65;72.80;78302.47;5024229;28;20061;-72
2021/05/30 04:06:27;;;;;;;20.58;11.93;;;;;;;-142.65;72.90;78298.34;5024381;28;20455;-72
2021/05/30 04:08:52;;;;;;;20.55;12.80;;;;;;;-142.65;72.81;78290.13;5026056;28;20033;-74
2021/05/30 04:11:18;;;;;;;21.80;13.20;;;;;;;-142.65;72.64;78294.22;5025887;28;20036;-74
2021/05/30 04:13:44;;;;;;;22.83;13.27;;;;;;;-142.65;72.77;78288.06;5024719;28;20033;-74
2021/05/30 04:16:10;;;;;;;21.08;12.70;;;;;;;-142.65;72.99;78288.06;5026949;28;20060;-74
2021/05/30 04:18:36;;;;;;;21.48;13.75;;;;;;;-142.65;73.25;78294.22;5023684;28;20108;-74
2021/05/30 04:21:04;;;;;;;20.83;13.07;;;;;;;-142.65;73.29;78286.00;5025006;28;20037;-74
2021/05/30 04:23:30;;;;;;;23.60;13.35;;;;;;;-142.65;73.46;78273.66;5029262;28;20029;-74
2021/05/30 04:25:57;;;;;;;21.75;13.43;;;;;;;-142.65;73.41;78267.50;5026014;28;20030;-74
2021/05/30 04:28:23;;;;;;;24.10;14.75;;;;;;;-142.65;73.32;78263.38;5026159;28;20048;-74
2021/05/30 04:30:48;;;;;;;21.88;13.63;;;;;;;-142.65;73.21;78253.09;5026742;28;20040;-74
2021/05/30 04:33:14;;;;;;;20.45;12.77;;;;;;;-142.65;73.26;78242.81;5026456;28;20060;-74
2021/05/30 04:35:40;;;;;;;28.80;15.23;;;;;;;-142.65;73.22;78246.94;5028964;28;20312;-74
2021/05/30 04:38:05;;;;;;;24.63;14.23;;;;;;;-142.65;73.29;78236.66;5026605;28;20472;-74
2021/05/30 04:40:31;;;;;;;26.25;15.30;;;;;;;-142.65;73.65;78230.47;5033780;28;20068;-74
2021/05/30 04:42:57;;;;;;;25.27;15.43;;;;;;;-142.65;73.61;78220.19;5028666;28;20060;-74
2021/05/30 04:45:23;;;;;;;26.63;15.88;;;;;;;-142.65;73.77;78220.19;5030905;28;20502;-74
2021/05/30 04:47:48;;;;;;;30.45;18.92;;;;;;;-142.65;74.29;78211.97;5028168;28;20142;-74
2021/05/30 04:50:14;;;;;;;29.17;16.90;;;;;;;-142.65;74.62;78207.84;5029381;28;20545;-74
2021/05/30 04:52:40;;;;;;;27.58;17.13;;;;;;;-142.65;74.82;78199.63;5029087;28;20097;-74
2021/05/30 04:55:07;;;;;;;27.75;16.23;;;;;;;-142.65;74.85;78187.28;5026800;28;20542;-74
2021/05/30 04:57:32;;;;;;;28.70;17.50;;;;;;;-142.65;75.01;78179.06;5023608;28;20033;-73
2021/05/30 04:59:58;;;;;;;24.83;15.98;;;;;;;-142.65;75.09;78166.72;5029421;28;20379;-74
2021/05/30 05:02:23;;;;;;;31.50;17.92;;;;;;;-142.65;74.94;78156.44;5034954;28;20049;-74
2021/05/30 05:04:49;;;;;;;28.50;16.42;;;;;;;-142.65;75.08;78137.94;5031903;28;20033;-74
2021/05/30 05:07:15;;;;;;;29.77;17.00;;;;;;;-142.65;75.00;78129.69;5032295;28;20444;-74
2021/05/30 05:09:40;;;;;;;26.33;15.80;;;;;;;-142.65;74.85;78109.13;5017415;28;20141;-74
2021/05/30 05:12:06;;;;;;;28.90;16.50;;;;;;;-142.65;74.63;78086.50;5024914;28;20033;-74
2021/05/30 05:14:32;;;;;;;26.75;16.50;;;;;;;-142.65;74.48;78068.00;5026373;28;20044;-74
2021/05/30 05:16:57;;;;;;;28.83;16.70;;;;;;;-142.65;74.37;78049.50;5023924;28;20049;-74
2021/05/30 05:19:23;;;;;;;30.70;17.77;;;;;;;-142.65;74.15;78030.97;5024495;28;20029;-75
2021/05/30 05:21:48;;;;;;;35.83;20.23;;;;;;;-142.65;74.13;77996.03;5023885;28;20557;-74
2021/05/30 05:24:14;;;;;;;37.42;21.45;;;;;;;-142.65;74.35;77989.84;5026644;28;20040;-72
2021/05/30 05:26:39;;;;;;;31.60;18.80;;;;;;;-142.65;74.15;77961.06;5029277;28;20046;-74
2021/05/30 05:29:05;;;;;;;37.28;20.05;;;;;;;-142.65;74.08;77940.50;5026662;28;20021;-74
2021/05/30 05:31:30;;;;;;;32.00;19.15;;;;;;;-142.65;73.53;77913.75;5012813;28;20087;-75
2021/05/30 05:33:56;;;;;;;34.80;18.80;;;;;;;-142.65;73.20;77895.25;5029401;28;20040;-74
2021/05/30 05:36:21;;;;;;;31.40;18.92;;;;;;;-142.65;71.62;77864.41;5029178;28;20096;-75
2021/05/30 05:38:47;;;;;;;30.67;18.55;;;;;;;-142.65;71.07;77837.66;5033176;28;20048;-74
2021/05/30 05:41:12;;;;;;;31.63;17.67;;;;;;;-142.65;70.75;77800.66;5034331;28;20033;-74
2021/05/30 05:43:38;;;;;;;30.30;18.08;;;;;;;-142.65;69.62;77763.66;5029697;28;20060;-74
2021/05/30 05:46:04;;;;;;;32.17;19.88;;;;;;;-142.65;68.70;77718.41;5030357;28;20030;-75
2021/05/30 05:48:29;;;;;;;29.48;17.38;;;;;;;-142.65;67.36;77679.34;5030388;28;20045;-75
2021/05/30 05:50:55;;;;;;;24.08;16.65;;;;;;;-142.65;66.50;77642.31;5036201;28;20025;-75
2021/05/30 05:53:20;;;;;;;31.35;18.77;;;;;;;-142.65;63.69;77611.47;5028699;28;20029;-75
2021/05/30 05:55:45;;;;;;;28.85;17.50;;;;;;;-142.65;63.55;77574.47;5029364;28;20782;-72
2021/05/30 05:58:11;;;;;;;29.95;17.55;;;;;;;-142.65;62.92;77549.78;5029870;28;20394;-72
2021/05/30 06:00:37;;;;;;;30.92;18.35;;;;;;;-142.65;61.49;77512.78;5025402;28;20037;-73
2021/05/30 06:03:03;;;;;;;29.30;17.10;;;;;;;-142.65;60.50;77481.94;5034433;28;20048;-72
2021/05/30 06:05:28;;;;;;;28.80;17.45;;;;;;;-142.65;60.21;77455.19;5029106;28;20033;-72
2021/05/30 06:07:56;;;;;;;28.10;18.13;;;;;;;-142.65;58.63;77436.69;5028958;28;20053;-72
2021/05/30 06:10:25;;;;;;;28.38;17.70;;;;;;;-142.65;56.91;77397.63;5027609;28;20067;-72
2021/05/30 06:12:52;;;;;;;34.65;18.88;;;;;;;-142.65;57.12;77383.25;5024845;28;20097;-72
2021/05/30 06:15:22;;;;;;;29.73;17.70;;;;;;;-142.65;56.57;77364.72;5026008;28;20063;-73
2021/05/30 06:17:55;;;;;;;31.75;17.90;;;;;;;-142.65;55.88;77368.84;5023720;28;20040;-73
2021/05/30 06:20:21;;;;;;;31.55;16.05;;;;;;;-142.65;55.52;77356.50;5026566;28;20028;-73
2021/05/30 06:22:47;;;;;;;27.42;17.58;;;;;;;-142.65;54.59;77338.00;5029566;28;20486;-75
2021/05/30 06:25:13;;;;;;;31.08;17.55;;;;;;;-142.65;55.34;77307.16;5026331;28;20040;-75
2021/05/30 06:27:38;;;;;;;32.63;17.83;;;;;;;-142.65;53.62;77253.69;5024758;28;20394;-75
2021/05/30 06:30:05;;;;;;;26.27;17.50;;;;;;;-142.65;53.10;77212.59;5016968;28;20033;-75
2021/05/30 06:32:31;;;;;;;27.48;16.48;;;;;;;-142.65;52.30;77185.84;5032001;28;20025;-74
2021/05/30 06:34:56;;;;;;;28.25;15.90;;;;;;;-142.65;50.87;77171.47;5028571;28;20409;-75
2021/05/30 06:37:22;;;;;;;24.90;15.43;;;;;;;-142.65;49.88;77165.28;5028114;28;20041;-75
2021/05/30 06:39:47;;;;;;;26.27;15.68;;;;;;;-142.65;50.60;77134.44;5026996;28;20044;-75
2021/05/30 06:42:13;;;;;;;20.13;13.23;;;;;;;-142.65;49.11;77099.50;5036350;28;20029;-73
2021/05/30 06:44:38;;;;;;;24.50;14.65;;;;;;;-142.65;48.41;77085.09;5031467;28;20482;-73
2021/05/30 06:47:04;;;;;;;25.58;15.07;;;;;;;-142.65;48.71;77070.72;5038504;28;20066;-73
2021/05/30 06:49:30;;;;;;;22.23;14.32;;;;;;;-142.65;47.94;77031.66;5023848;28;20034;-73
2021/05/30 06:51:56;;;;;;;22.70;14.15;;;;;;;-142.65;46.91;77011.09;5018851;28;20692;-73
2021/05/30 06:54:21;;;;;;;25.25;14.23;;;;;;;-142.65;46.93;76992.59;5027588;28;20049;-73
2021/05/30 06:56:47;;;;;;;23.02;14.18;;;;;;;-142.65;45.37;76949.41;5032369;28;20083;-73
2021/05/30 06:59:12;;;;;;;22.08;13.65;;;;;;;-142.65;45.17;76930.91;5024634;28;20045;-73
2021/05/30 07:01:38;;;;;;;19.73;13.63;;;;;;;-142.65;45.12;76891.84;5022878;28;20429;-73
2021/05/30 07:04:04;;;;;;;19.52;12.02;;;;;;;-142.65;44.05;76875.41;5030248;28;20110;-73
2021/05/30 07:06:29;;;;;;;16.98;11.52;;;;;;;-142.65;43.49;76850.72;5023184;28;20037;-73
2021/05/30 07:08:55;;;;;;;17.58;9.85;;;;;;;-142.65;41.70;76852.78;5019494;28;20057;-74
2021/05/30 07:11:21;;;;;;;14.90;10.18;;;;;;;-142.65;41.74;76830.19;5016039;28;20477;-73
2021/05/30 07:13:46;;;;;;;15.52;9.48;;;;;;;-142.65;41.06;76776.72;5020966;28;20124;-73
2021/05/30 07:16:12;;;;;;;17.38;10.10;;;;;;;-142.65;40.35;76772.63;5025294;28;20045;-73
2021/05/30 07:18:37;;;;;;;17.13;10.30;;;;;;;-142.65;39.32;76780.84;5027163;28;20025;-73
2021/05/30 07:21:03;;;;;;;14.93;10.00;;;;;;;-142.65;38.99;76760.28;5027058;28;20037;-73
2021/05/30 07:23:29;;;;;;;13.20;9.60;;;;;;;-142.65;39.82;76760.28;5029761;28;20026;-73
2021/05/30 07:25:55;;;;;;;12.98;9.00;;;;;;;-142.65;40.38;76719.16;5023674;28;20402;-73
2021/05/30 07:28:21;;;;;;;18.20;10.23;;;;;;;-142.65;39.50;76678.06;5027055;28;20026;-73
2021/05/30 07:30:48;;;;;;;16.20;10.32;;;;;;;-142.65;38.80;76647.22;5029832;28;20627;-73
2021/05/30 07:33:14;;;;;;;19.33;11.25;;;;;;;-142.65;38.31;76639.00;5021060;28;20525;-73
2021/05/30 07:35:39;;;;;;;18.05;10.88;;;;;;;-142.65;37.39;76639.00;5027450;28;20034;-73
2021/05/30 07:38:05;;;;;;;15.05;9.68;;;;;;;-142.65;38.17;76636.94;5035004;28;20103;-73
2021/05/30 07:40:31;;;;;;;14.40;10.45;;;;;;;-142.65;37.77;76610.22;5033557;28;20477;-74
2021/05/30 07:42:58;;;;;;;14.15;9.95;;;;;;;-142.65;36.78;76604.03;5031734;28;20052;-73
2021/05/30 07:45:25;;;;;;;15.43;9.93;;;;;;;-142.65;36.71;76657.50;5023592;28;20742;-74
2021/05/30 07:47:51;;;;;;;15.10;9.75;;;;;;;-142.65;36.96;76641.06;5031701;28;20041;-75
2021/05/30 07:50:18;;;;;;;17.40;10.38;;;;;;;-142.65;37.69;76597.88;5028908;28;20029;-74
2021/05/30 07:52:44;;;;;;;13.23;9.13;;;;;;;-142.65;36.73;76519.75;5020591;28;20526;-74
2021/05/30 07:55:10;;;;;;;13.50;9.52;;;;;;;-142.65;35.24;76534.16;5030889;28;20044;-74
2021/05/30 07:57:36;;;;;;;18.70;9.35;;;;;;;-142.65;35.95;76517.72;5035943;28;20567;-73
2021/05/30 08:00:11;;;;;;;19.05;9.82;;;;;;;-142.65;36.69;76493.03;5030828;28;20037;-74
2021/05/30 08:02:41;;;;;;;15.43;9.25;;;;;;;-142.65;35.92;76456.03;5026884;28;20022;-74
2021/05/30 08:05:07;;;;;;;10.88;7.47;;;;;;;-142.65;34.98;76427.25;5023154;28;20080;-74
2021/05/30 08:07:33;;;;;;;12.80;8.82;;;;;;;-142.65;34.05;76400.53;5034778;28;20041;-74
2021/05/30 08:09:59;;;;;;;18.65;9.80;;;;;;;-142.65;34.14;76421.09;5028972;28;20041;-74
2021/05/30 08:12:26;;;;;;;12.95;8.90;;;;;;;-142.65;34.89;76435.47;5021961;28;20037;-74
2021/05/30 08:14:52;;;;;;;14.60;9.50;;;;;;;-142.65;34.37;76419.03;5025476;28;20067;-74
2021/05/30 08:17:18;;;;;;;15.35;9.60;;;;;;;-142.65;34.33;76398.47;5025084;28;20045;-74
2021/05/30 08:19:44;;;;;;;14.82;8.95;;;;;;;-142.65;33.83;76382.03;5026457;28;20045;-74
2021/05/30 08:22:09;;;;;;;14.30;8.90;;;;;;;-142.65;32.99;76410.81;5025450;28;20034;-74
2021/05/30 08:24:37;;;;;;;10.82;7.63;;;;;;;-142.65;33.28;76390.25;5024330;28;20095;-73
2021/05/30 08:58:00;;;;;;;56.60;20.85;;;;;;;15.96;59.69;102526.81;5032196;27;20612;-48
2021/05/30 09:00:31;;;;;;;50.17;18.45;;;;;;;15.71;59.33;102523.94;4998654;28;20532;-47
2021/05/30 09:11:57;;;;;;;28.27;9.73;;;;;;;19.67;47.70;102508.78;5071781;27;20646;-35
2021/05/30 09:14:29;;;;;;;17.08;8.13;;;;;;;18.75;50.16;102506.75;5054100;28;20021;-36
2021/05/30 09:18:27;;;;;;;10.77;5.25;;;;;;;20.77;40.04;102489.06;5096636;27;20600;-76
2021/05/30 09:21:00;;;;;;;7.07;4.20;;;;;;;21.95;37.38;102476.50;5057999;28;20049;-77
2021/05/30 09:23:40;;;;;;;7.90;4.82;;;;;;;22.48;34.99;102471.59;5053037;28;20112;-77
2021/05/30 09:26:19;;;;;;;7.28;3.45;;;;;;;22.74;35.50;102476.19;5049775;28;20071;-77
2021/05/30 09:29:07;;;;;;;8.27;3.65;;;;;;;23.32;33.47;102472.38;5052186;28;20044;-77
2021/05/30 09:31:34;;;;;;;5.60;3.70;;;;;;;23.38;34.13;102465.44;5049425;28;20502;-77
2021/05/30 09:34:41;;;;;;;5.97;4.28;;;;;;;23.88;32.10;102464.06;5050951;28;20131;-78
2021/05/30 09:37:08;;;;;;;5.60;3.30;;;;;;;24.10;32.58;102461.19;5048729;28;20034;-78
2021/05/30 09:39:42;;;;;;;5.15;3.20;;;;;;;24.37;31.45;102458.47;5041841;28;20036;-77
2021/05/30 09:42:33;;;;;;;7.18;3.50;;;;;;;23.83;32.14;102457.75;5057375;28;20343;-77
2021/05/30 09:44:59;;;;;;;4.50;3.22;;;;;;;23.74;33.07;102459.75;5048544;28;20218;-78
2021/05/30 09:47:45;;;;;;;4.53;2.97;;;;;;;24.10;31.57;102459.34;5049045;28;20060;-78
2021/05/30 09:50:18;;;;;;;7.03;2.97;;;;;;;24.02;29.82;102450.81;5040474;28;20037;-78
2021/05/30 09:52:45;;;;;;;3.17;2.45;;;;;;;23.75;29.19;102449.97;5057925;28;20044;-77
2021/05/30 09:55:13;;;;;;;4.40;2.67;;;;;;;23.22;30.76;102443.63;5070343;28;20041;-77
2021/05/30 09:57:39;;;;;;;3.90;2.75;;;;;;;23.10;31.09;102446.03;5040213;28;20040;-77
2021/05/30 10:00:19;;;;;;;4.25;3.45;;;;;;;23.36;30.74;102451.56;5056038;28;20033;-77
2021/05/30 10:02:45;;;;;;;5.40;3.25;;;;;;;23.61;31.45;102446.53;5054371;28;20036;-77
2021/05/30 10:05:11;;;;;;;7.10;3.08;;;;;;;23.49;30.93;102441.03;5057171;28;20028;-77
2021/05/30 10:07:37;;;;;;;4.22;2.38;;;;;;;23.81;28.77;102443.88;5055950;28;20035;-77
2021/05/30 10:10:04;;;;;;;3.47;2.63;;;;;;;23.94;28.80;102443.91;5040570;28;20623;-78
2021/05/30 10:12:30;;;;;;;4.82;2.92;;;;;;;23.90;30.14;102447.94;5052414;28;20422;-77
2021/05/30 10:14:55;;;;;;;5.55;2.60;;;;;;;23.60;29.62;102445.72;5055068;28;20032;-78
2021/05/30 10:17:22;;;;;;;4.53;2.70;;;;;;;23.69;32.30;102441.00;5037800;28;20074;-78
2021/05/30 10:19:49;;;;;;;5.22;2.60;;;;;;;23.11;30.82;102442.41;5056708;28;20041;-77
2021/05/30 10:22:17;;;;;;;3.58;2.20;;;;;;;23.37;29.99;102451.38;5054065;28;20036;-77
2021/05/30 10:24:44;;;;;;;3.20;1.92;;;;;;;23.74;31.19;102443.88;5052573;28;20405;-78
2021/05/30 10:27:15;;;;;;;5.18;2.22;;;;;;;23.66;29.24;102447.53;5055290;28;20454;-77
2021/05/30 10:29:41;;;;;;;3.42;2.03;;;;;;;23.35;30.42;102442.03;5044515;28;20037;-77
2021/05/30 10:32:18;;;;;;;3.72;2.30;;;;;;;23.66;30.63;102441.44;5027695;28;20067;-78
2021/05/30 10:35:08;;;;;;;3.00;2.15;;;;;;;23.62;30.48;102442.84;5053442;28;20624;-78
2021/05/30 10:37:43;;;;;;;26.77;2.42;;;;;;;23.55;30.22;102440.22;5054890;28;20590;-77
2021/05/30 10:40:21;;;;;;;6.22;2.03;;;;;;;23.65;31.02;102445.09;5040671;28;20410;-77
2021/05/30 10:43:09;;;;;;;3.72;2.50;;;;;;;23.72;29.43;102432.69;5053517;28;20029;-77
2021/05/30 10:45:36;;;;;;;3.90;2.03;;;;;;;23.84;29.13;102436.34;5057087;28;20112;-78
2021/05/30 10:48:05;;;;;;;3.38;1.52;;;;;;;23.78;29.47;102423.91;5037410;28;20029;-78
2021/05/30 10:50:35;;;;;;;3.22;2.45;;;;;;;23.70;29.51;102429.41;5054864;28;20067;-78
2021/05/30 10:53:01;;;;;;;3.60;1.90;;;;;;;23.80;28.85;102429.03;5041688;28;20410;-78
2021/05/30 10:55:29;;;;;;;2.60;2.05;;;;;;;23.97;30.68;102426.78;5042301;28;20036;-77
2021/05/30 10:57:56;;;;;;;2.65;1.80;;;;;;;24.35;28.35;102431.38;5039287;28;20175;-77
2021/05/30 11:00:21;;;;;;;2.30;2.10;;;;;;;24.28;26.61;102426.91;5020867;28;20052;-78
2021/05/30 11:03:12;;;;;;;2.70;1.90;;;;;;;24.40;28.88;102410.34;5034412;28;20030;-77
2021/05/30 11:05:52;;;;;;;4.95;2.40;;;;;;;24.26;27.70;102409.56;5022327;28;20060;-78
2021/05/30 11:08:33;;;;;;;3.97;1.85;;;;;;;24.56;30.29;102409.88;5020936;28;20442;-78
2021/05/30 11:11:17;;;;;;;2.33;1.90;;;;;;;24.42;26.14;102405.66;5022934;28;20044;-78
2021/05/30 11:13:57;;;;;;;2.78;1.33;;;;;;;24.63;28.44;102405.38;5002239;28;20036;-78
2021/05/30 11:16:23;;;;;;;3.40;1.80;;;;;;;24.58;28.67;102397.25;5027787;28;20128;-77
2021/05/30 11:19:16;;;;;;;3.42;1.70;;;;;;;24.35;28.25;102405.66;5034126;28;20133;-77
2021/05/30 11:21:46;;;;;;;2.38;1.98;;;;;;;24.45;26.50;102397.28;5009794;28;20188;-77
2021/05/30 11:24:18;;;;;;;3.35;2.15;;;;;;;24.55;27.56;102397.66;5019731;28;20037;-77
2021/05/30 11:27:04;;;;;;;3.83;2.20;;;;;;;24.58;29.42;102396.44;5001416;28;20029;-78
2021/05/30 11:29:31;;;;;;;4.80;2.35;;;;;;;24.65;27.40;102398.00;5016376;28;20033;-78
2021/05/30 11:31:59;;;;;;;2.10;1.73;;;;;;;24.05;28.44;102397.41;5032544;28;20025;-78
2021/05/30 11:34:30;;;;;;;2.40;2.00;;;;;;;23.97;29.40;102401.09;5017568;28;20125;-78
2021/05/30 11:37:07;;;;;;;3.13;1.98;;;;;;;23.52;29.43;102398.25;5035067;28;20239;-77
2021/05/30 11:39:51;;;;;;;4.25;2.28;;;;;;;23.64;28.06;102387.84;5024408;28;20312;-78
2021/05/30 11:42:23;;;;;;;3.35;1.92;;;;;;;23.76;28.26;102388.88;5038607;28;20044;-78
2021/05/30 11:44:49;;;;;;;3.10;2.13;;;;;;;23.83;27.82;102381.78;5022890;28;20497;-78
2021/05/30 11:47:14;;;;;;;2.70;2.10;;;;;;;23.93;28.94;102384.00;5003767;28;20037;-78
2021/05/30 11:49:41;;;;;;;2.08;1.80;;;;;;;23.94;28.33;102376.84;5015671;28;20036;-78
2021/05/30 11:52:13;;;;;;;2.70;2.47;;;;;;;24.17;28.05;102379.84;5038094;28;20088;-77